sensor_id;sensor_type;location;lat;lon;timestamp;pressure;altitude;pressure_sealevel;temperature;humidity
64388;BME280;50709;52.648;4.764;2022-07-21T00:01:03;101778.91;;;25.85;53.32
64388;BME280;50709;52.648;4.764;2022-07-21T00:03:28;101753.91;;;25.86;53.03
64388;BME280;50709;52.648;4.764;2022-07-21T00:05:53;101774.81;;;25.78;53.38
64388;BME280;50709;52.648;4.764;2022-07-21T00:08:19;101779.72;;;25.88;53.04
64388;BME280;50709;52.648;4.764;2022-07-21T00:10:44;101767.63;;;25.98;53.00
64388;BME280;50709;52.648;4.764;2022-07-21T00:13:10;101759.75;;;25.95;53.11
64388;BME280;50709;52.648;4.764;2022-07-21T00:15:35;101755.19;;;25.97;53.17
64388;BME280;50709;52.648;4.764;2022-07-21T00:18:00;101752.97;;;25.88;53.26
64388;BME280;50709;52.648;4.764;2022-07-21T00:20:26;101764.75;;;25.83;53.44
64388;BME280;50709;52.648;4.764;2022-07-21T00:22:53;101744.34;;;26.00;53.50
64388;BME280;50709;52.648;4.764;2022-07-21T00:25:18;101736.84;;;25.89;53.63
64388;BME280;50709;52.648;4.764;2022-07-21T00:27:44;101728.28;;;26.00;53.38
64388;BME280;50709;52.648;4.764;2022-07-21T00:30:10;101754.84;;;26.05;53.67
64388;BME280;50709;52.648;4.764;2022-07-21T00:32:36;101729.47;;;25.75;53.78
64388;BME280;50709;52.648;4.764;2022-07-21T00:35:03;101736.03;;;25.68;54.95
64388;BME280;50709;52.648;4.764;2022-07-21T00:37:29;101715.75;;;25.45;55.29
64388;BME280;50709;52.648;4.764;2022-07-21T00:39:54;101718.84;;;25.35;55.81
64388;BME280;50709;52.648;4.764;2022-07-21T00:42:24;101707.22;;;25.56;55.21
64388;BME280;50709;52.648;4.764;2022-07-21T00:44:50;101711.25;;;25.83;54.54
64388;BME280;50709;52.648;4.764;2022-07-21T00:47:27;101704.00;;;25.85;54.59
64388;BME280;50709;52.648;4.764;2022-07-21T00:49:53;101726.66;;;25.78;55.34
64388;BME280;50709;52.648;4.764;2022-07-21T00:52:19;101721.38;;;25.58;55.64
64388;BME280;50709;52.648;4.764;2022-07-21T00:54:44;101716.81;;;25.79;55.32
64388;BME280;50709;52.648;4.764;2022-07-21T00:57:11;101721.16;;;25.62;56.00
64388;BME280;50709;52.648;4.764;2022-07-21T00:59:37;101712.06;;;25.47;56.29
64388;BME280;50709;52.648;4.764;2022-07-21T01:02:03;101720.22;;;25.44;56.47
64388;BME280;50709;52.648;4.764;2022-07-21T01:04:29;101725.59;;;25.44;56.78
64388;BME280;50709;52.648;4.764;2022-07-21T01:06:55;101722.59;;;25.50;56.83
64388;BME280;50709;52.648;4.764;2022-07-21T01:09:21;101718.72;;;25.58;56.72
64388;BME280;50709;52.648;4.764;2022-07-21T01:11:47;101694.84;;;25.53;56.67
64388;BME280;50709;52.648;4.764;2022-07-21T01:14:13;101703.69;;;25.36;56.87
64388;BME280;50709;52.648;4.764;2022-07-21T01:16:42;101728.09;;;25.47;57.11
64388;BME280;50709;52.648;4.764;2022-07-21T01:19:08;101727.59;;;25.39;57.55
64388;BME280;50709;52.648;4.764;2022-07-21T01:21:39;101683.78;;;25.23;57.04
64388;BME280;50709;52.648;4.764;2022-07-21T01:24:06;101731.44;;;25.32;57.75
64388;BME280;50709;52.648;4.764;2022-07-21T01:26:41;101726.72;;;25.39;57.75
64388;BME280;50709;52.648;4.764;2022-07-21T01:29:07;101729.25;;;25.42;57.69
64388;BME280;50709;52.648;4.764;2022-07-21T01:31:34;101719.16;;;25.48;57.46
64388;BME280;50709;52.648;4.764;2022-07-21T01:33:59;101719.81;;;25.33;58.27
64388;BME280;50709;52.648;4.764;2022-07-21T01:36:24;101727.25;;;25.47;57.77
64388;BME280;50709;52.648;4.764;2022-07-21T01:38:50;101726.00;;;25.35;58.01
64388;BME280;50709;52.648;4.764;2022-07-21T01:41:34;101705.97;;;25.44;57.58
64388;BME280;50709;52.648;4.764;2022-07-21T01:44:06;101721.09;;;25.45;57.79
64388;BME280;50709;52.648;4.764;2022-07-21T01:46:36;101709.72;;;25.40;57.94
64388;BME280;50709;52.648;4.764;2022-07-21T01:49:02;101661.56;;;25.01;58.36
64388;BME280;50709;52.648;4.764;2022-07-21T01:51:28;101706.22;;;25.18;58.69
64388;BME280;50709;52.648;4.764;2022-07-21T01:53:54;101708.84;;;25.20;58.79
64388;BME280;50709;52.648;4.764;2022-07-21T01:56:21;101676.75;;;25.01;58.91
64388;BME280;50709;52.648;4.764;2022-07-21T01:58:47;101695.44;;;25.01;59.28
64388;BME280;50709;52.648;4.764;2022-07-21T02:01:14;101705.84;;;25.26;58.83
64388;BME280;50709;52.648;4.764;2022-07-21T02:03:39;101686.88;;;25.13;59.23
64388;BME280;50709;52.648;4.764;2022-07-21T02:06:05;101655.47;;;24.98;58.41
64388;BME280;50709;52.648;4.764;2022-07-21T02:08:32;101662.00;;;25.11;58.48
64388;BME280;50709;52.648;4.764;2022-07-21T02:10:58;101616.03;;;24.84;58.00
64388;BME280;50709;52.648;4.764;2022-07-21T02:13:23;101693.84;;;25.37;57.93
64388;BME280;50709;52.648;4.764;2022-07-21T02:15:49;101689.63;;;25.31;58.46
64388;BME280;50709;52.648;4.764;2022-07-21T02:18:15;101688.63;;;24.94;59.08
64388;BME280;50709;52.648;4.764;2022-07-21T02:20:40;101690.72;;;25.06;59.02
64388;BME280;50709;52.648;4.764;2022-07-21T02:23:06;101695.59;;;25.17;58.93
64388;BME280;50709;52.648;4.764;2022-07-21T02:25:32;101684.88;;;24.98;59.15
64388;BME280;50709;52.648;4.764;2022-07-21T02:27:57;101643.34;;;24.91;58.71
64388;BME280;50709;52.648;4.764;2022-07-21T02:30:22;101683.38;;;25.11;58.83
64388;BME280;50709;52.648;4.764;2022-07-21T02:32:48;101679.34;;;25.22;59.26
64388;BME280;50709;52.648;4.764;2022-07-21T02:35:13;101644.44;;;25.06;59.35
64388;BME280;50709;52.648;4.764;2022-07-21T02:37:39;101658.13;;;25.18;58.86
64388;BME280;50709;52.648;4.764;2022-07-21T02:40:05;101679.34;;;25.22;58.87
64388;BME280;50709;52.648;4.764;2022-07-21T02:42:31;101674.19;;;25.17;59.33
64388;BME280;50709;52.648;4.764;2022-07-21T02:44:56;101669.66;;;25.00;59.70
64388;BME280;50709;52.648;4.764;2022-07-21T02:47:21;101673.78;;;25.07;59.55
64388;BME280;50709;52.648;4.764;2022-07-21T02:49:47;101667.03;;;24.79;59.93
64388;BME280;50709;52.648;4.764;2022-07-21T02:52:13;101680.00;;;24.87;60.21
64388;BME280;50709;52.648;4.764;2022-07-21T02:54:39;101660.31;;;24.90;59.90
64388;BME280;50709;52.648;4.764;2022-07-21T02:57:04;101670.66;;;24.97;60.18
64388;BME280;50709;52.648;4.764;2022-07-21T02:59:29;101670.00;;;24.92;59.82
64388;BME280;50709;52.648;4.764;2022-07-21T03:01:55;101656.56;;;24.94;59.88
64388;BME280;50709;52.648;4.764;2022-07-21T03:04:20;101662.63;;;24.97;59.57
64388;BME280;50709;52.648;4.764;2022-07-21T03:06:48;101674.28;;;25.15;59.84
64388;BME280;50709;52.648;4.764;2022-07-21T03:09:14;101677.19;;;25.11;59.62
64388;BME280;50709;52.648;4.764;2022-07-21T03:11:39;101678.84;;;25.13;60.24
64388;BME280;50709;52.648;4.764;2022-07-21T03:14:04;101655.63;;;24.95;59.89
64388;BME280;50709;52.648;4.764;2022-07-21T03:16:30;101677.28;;;24.89;60.07
64388;BME280;50709;52.648;4.764;2022-07-21T03:18:55;101683.34;;;24.92;60.42
64388;BME280;50709;52.648;4.764;2022-07-21T03:21:21;101678.16;;;24.89;60.16
64388;BME280;50709;52.648;4.764;2022-07-21T03:23:47;101661.19;;;24.69;60.54
64388;BME280;50709;52.648;4.764;2022-07-21T03:26:13;101680.38;;;24.79;60.74
64388;BME280;50709;52.648;4.764;2022-07-21T03:28:40;101685.16;;;24.50;61.45
64388;BME280;50709;52.648;4.764;2022-07-21T03:31:05;101673.97;;;24.83;60.70
64388;BME280;50709;52.648;4.764;2022-07-21T03:33:31;101679.72;;;24.74;60.73
64388;BME280;50709;52.648;4.764;2022-07-21T03:35:57;101673.38;;;24.13;62.51
64388;BME280;50709;52.648;4.764;2022-07-21T03:38:25;101674.78;;;24.43;62.06
64388;BME280;50709;52.648;4.764;2022-07-21T03:40:51;101681.00;;;24.23;62.10
64388;BME280;50709;52.648;4.764;2022-07-21T03:43:16;101679.06;;;24.47;61.73
64388;BME280;50709;52.648;4.764;2022-07-21T03:45:42;101658.69;;;24.66;61.35
64388;BME280;50709;52.648;4.764;2022-07-21T03:48:08;101637.09;;;24.71;60.52
64388;BME280;50709;52.648;4.764;2022-07-21T03:50:35;101680.22;;;24.82;60.66
64388;BME280;50709;52.648;4.764;2022-07-21T03:53:01;101660.06;;;24.75;60.65
64388;BME280;50709;52.648;4.764;2022-07-21T03:55:27;101677.56;;;24.82;60.94
64388;BME280;50709;52.648;4.764;2022-07-21T03:57:56;101667.19;;;24.54;61.36
64388;BME280;50709;52.648;4.764;2022-07-21T04:02:51;101672.78;;;24.48;61.70
64388;BME280;50709;52.648;4.764;2022-07-21T04:05:18;101669.41;;;24.01;63.27
64388;BME280;50709;52.648;4.764;2022-07-21T04:07:46;101677.91;;;24.11;63.44
64388;BME280;50709;52.648;4.764;2022-07-21T04:10:14;101671.94;;;23.82;64.42
64388;BME280;50709;52.648;4.764;2022-07-21T04:12:40;101672.03;;;23.35;65.91
64388;BME280;50709;52.648;4.764;2022-07-21T04:15:07;101668.75;;;23.73;64.88
64388;BME280;50709;52.648;4.764;2022-07-21T04:17:33;101661.59;;;23.97;63.96
64388;BME280;50709;52.648;4.764;2022-07-21T04:19:59;101670.06;;;23.84;64.08
64388;BME280;50709;52.648;4.764;2022-07-21T04:22:25;101661.34;;;24.03;63.59
64388;BME280;50709;52.648;4.764;2022-07-21T04:24:50;101650.00;;;24.18;63.00
64388;BME280;50709;52.648;4.764;2022-07-21T04:27:16;101665.38;;;24.34;63.09
64388;BME280;50709;52.648;4.764;2022-07-21T04:29:41;101662.25;;;24.45;61.71
64388;BME280;50709;52.648;4.764;2022-07-21T04:32:07;101667.75;;;24.19;63.34
64388;BME280;50709;52.648;4.764;2022-07-21T04:34:33;101673.66;;;24.28;62.26
64388;BME280;50709;52.648;4.764;2022-07-21T04:36:59;101666.66;;;24.46;62.67
64388;BME280;50709;52.648;4.764;2022-07-21T04:39:25;101674.59;;;24.27;62.41
64388;BME280;50709;52.648;4.764;2022-07-21T04:41:50;101680.69;;;24.08;63.07
64388;BME280;50709;52.648;4.764;2022-07-21T04:44:16;101673.06;;;23.99;63.06
64388;BME280;50709;52.648;4.764;2022-07-21T04:46:41;101673.47;;;24.10;63.19
64388;BME280;50709;52.648;4.764;2022-07-21T04:49:06;101681.09;;;23.75;64.17
64388;BME280;50709;52.648;4.764;2022-07-21T04:51:32;101684.13;;;23.90;63.38
64388;BME280;50709;52.648;4.764;2022-07-21T04:53:57;101679.16;;;24.02;63.04
64388;BME280;50709;52.648;4.764;2022-07-21T04:56:23;101667.75;;;24.19;62.63
64388;BME280;50709;52.648;4.764;2022-07-21T04:58:48;101678.06;;;24.49;62.21
64388;BME280;50709;52.648;4.764;2022-07-21T05:01:13;101677.41;;;24.44;61.95
64388;BME280;50709;52.648;4.764;2022-07-21T05:03:39;101672.13;;;24.43;62.87
64388;BME280;50709;52.648;4.764;2022-07-21T05:06:04;101682.88;;;24.41;62.79
64388;BME280;50709;52.648;4.764;2022-07-21T05:08:30;101654.19;;;24.26;62.57
64388;BME280;50709;52.648;4.764;2022-07-21T05:10:55;101682.94;;;24.62;62.77
64388;BME280;50709;52.648;4.764;2022-07-21T05:13:21;101684.56;;;24.64;62.11
64388;BME280;50709;52.648;4.764;2022-07-21T05:15:46;101682.22;;;24.77;62.12
64388;BME280;50709;52.648;4.764;2022-07-21T05:18:11;101675.81;;;24.81;61.69
64388;BME280;50709;52.648;4.764;2022-07-21T05:20:37;101688.09;;;24.85;61.02
64388;BME280;50709;52.648;4.764;2022-07-21T05:23:02;101680.47;;;24.97;61.04
64388;BME280;50709;52.648;4.764;2022-07-21T05:25:28;101640.34;;;24.98;59.64
64388;BME280;50709;52.648;4.764;2022-07-21T05:27:54;101677.31;;;25.08;60.54
64388;BME280;50709;52.648;4.764;2022-07-21T05:30:20;101657.94;;;24.63;61.64
64388;BME280;50709;52.648;4.764;2022-07-21T05:32:45;101660.78;;;24.38;62.36
64388;BME280;50709;52.648;4.764;2022-07-21T05:35:11;101669.19;;;24.28;62.93
64388;BME280;50709;52.648;4.764;2022-07-21T05:37:40;101660.81;;;24.15;63.47
64388;BME280;50709;52.648;4.764;2022-07-21T05:40:07;101670.28;;;24.02;63.38
64388;BME280;50709;52.648;4.764;2022-07-21T05:42:33;101662.19;;;23.59;65.12
64388;BME280;50709;52.648;4.764;2022-07-21T05:44:59;101663.47;;;23.49;65.97
64388;BME280;50709;52.648;4.764;2022-07-21T05:47:25;101671.06;;;23.60;66.40
64388;BME280;50709;52.648;4.764;2022-07-21T05:49:50;101663.53;;;23.69;65.68
64388;BME280;50709;52.648;4.764;2022-07-21T05:52:15;101660.31;;;23.61;65.46
64388;BME280;50709;52.648;4.764;2022-07-21T05:54:41;101664.97;;;23.56;65.99
64388;BME280;50709;52.648;4.764;2022-07-21T05:57:06;101668.44;;;23.58;65.62
64388;BME280;50709;52.648;4.764;2022-07-21T05:59:31;101674.16;;;23.71;66.00
64388;BME280;50709;52.648;4.764;2022-07-21T06:01:58;101668.22;;;24.29;63.88
64388;BME280;50709;52.648;4.764;2022-07-21T06:04:23;101668.13;;;24.32;63.09
64388;BME280;50709;52.648;4.764;2022-07-21T06:06:48;101665.72;;;24.26;63.23
64388;BME280;50709;52.648;4.764;2022-07-21T06:09:14;101659.44;;;24.27;62.55
64388;BME280;50709;52.648;4.764;2022-07-21T06:11:39;101671.13;;;24.25;63.37
64388;BME280;50709;52.648;4.764;2022-07-21T06:14:04;101661.34;;;24.03;64.24
64388;BME280;50709;52.648;4.764;2022-07-21T06:16:30;101667.63;;;23.56;65.11
64388;BME280;50709;52.648;4.764;2022-07-21T06:18:56;101663.41;;;24.17;63.99
64388;BME280;50709;52.648;4.764;2022-07-21T06:21:21;101674.13;;;23.95;63.72
64388;BME280;50709;52.648;4.764;2022-07-21T06:23:46;101676.09;;;24.12;64.09
64388;BME280;50709;52.648;4.764;2022-07-21T06:26:12;101667.50;;;24.05;63.25
64388;BME280;50709;52.648;4.764;2022-07-21T06:28:37;101683.75;;;23.99;65.06
64388;BME280;50709;52.648;4.764;2022-07-21T06:31:02;101662.47;;;23.97;63.70
64388;BME280;50709;52.648;4.764;2022-07-21T06:33:28;101668.06;;;24.34;62.58
64388;BME280;50709;52.648;4.764;2022-07-21T06:35:54;101683.91;;;24.16;63.00
64388;BME280;50709;52.648;4.764;2022-07-21T06:38:19;101663.53;;;23.93;63.86
64388;BME280;50709;52.648;4.764;2022-07-21T06:40:45;101677.50;;;23.76;65.20
64388;BME280;50709;52.648;4.764;2022-07-21T06:43:11;101671.16;;;24.02;63.25
64388;BME280;50709;52.648;4.764;2022-07-21T06:45:37;101635.09;;;23.70;63.43
64388;BME280;50709;52.648;4.764;2022-07-21T06:48:04;101655.31;;;23.98;63.05
64388;BME280;50709;52.648;4.764;2022-07-21T06:50:30;101678.88;;;24.09;63.21
64388;BME280;50709;52.648;4.764;2022-07-21T06:52:55;101682.84;;;23.76;64.74
64388;BME280;50709;52.648;4.764;2022-07-21T06:55:20;101644.88;;;23.69;64.33
64388;BME280;50709;52.648;4.764;2022-07-21T06:57:46;101675.19;;;23.91;64.46
64388;BME280;50709;52.648;4.764;2022-07-21T07:00:12;101686.81;;;24.10;63.43
64388;BME280;50709;52.648;4.764;2022-07-21T07:02:37;101677.81;;;24.35;62.60
64388;BME280;50709;52.648;4.764;2022-07-21T07:05:03;101624.31;;;23.95;62.86
64388;BME280;50709;52.648;4.764;2022-07-21T07:07:28;101674.97;;;24.17;62.58
64388;BME280;50709;52.648;4.764;2022-07-21T07:09:55;101674.25;;;24.34;62.19
64388;BME280;50709;52.648;4.764;2022-07-21T07:12:21;101655.88;;;23.84;63.38
64388;BME280;50709;52.648;4.764;2022-07-21T07:14:46;101678.19;;;24.04;62.90
64388;BME280;50709;52.648;4.764;2022-07-21T07:17:16;101665.09;;;24.19;63.06
64388;BME280;50709;52.648;4.764;2022-07-21T07:19:44;101659.88;;;23.96;63.38
64388;BME280;50709;52.648;4.764;2022-07-21T07:22:09;101655.69;;;24.11;62.40
64388;BME280;50709;52.648;4.764;2022-07-21T07:24:34;101663.25;;;23.99;63.76
64388;BME280;50709;52.648;4.764;2022-07-21T07:27:00;101621.63;;;23.73;63.73
64388;BME280;50709;52.648;4.764;2022-07-21T07:29:25;101658.44;;;24.30;61.99
64388;BME280;50709;52.648;4.764;2022-07-21T07:31:50;101668.03;;;23.91;63.67
64388;BME280;50709;52.648;4.764;2022-07-21T07:34:16;101669.38;;;24.24;62.00
64388;BME280;50709;52.648;4.764;2022-07-21T07:36:41;101625.25;;;23.94;62.47
64388;BME280;50709;52.648;4.764;2022-07-21T07:39:06;101663.47;;;23.95;63.26
64388;BME280;50709;52.648;4.764;2022-07-21T07:41:32;101671.16;;;24.02;62.66
64388;BME280;50709;52.648;4.764;2022-07-21T07:43:58;101673.91;;;23.77;63.50
64388;BME280;50709;52.648;4.764;2022-07-21T07:46:25;101681.63;;;23.85;63.55
64388;BME280;50709;52.648;4.764;2022-07-21T07:48:51;101668.88;;;23.69;63.65
64388;BME280;50709;52.648;4.764;2022-07-21T07:51:17;101696.00;;;24.25;63.02
64388;BME280;50709;52.648;4.764;2022-07-21T07:53:42;101679.56;;;24.14;62.72
64388;BME280;50709;52.648;4.764;2022-07-21T07:56:08;101657.53;;;23.87;62.71
64388;BME280;50709;52.648;4.764;2022-07-21T07:58:33;101700.91;;;24.14;62.88
64388;BME280;50709;52.648;4.764;2022-07-21T08:00:59;101700.06;;;24.13;62.48
64388;BME280;50709;52.648;4.764;2022-07-21T08:03:25;101708.31;;;24.07;62.51
64388;BME280;50709;52.648;4.764;2022-07-21T08:05:52;101709.22;;;23.84;62.87
64388;BME280;50709;52.648;4.764;2022-07-21T08:08:17;101714.75;;;23.56;64.56
64388;BME280;50709;52.648;4.764;2022-07-21T08:10:44;101725.44;;;24.01;62.79
64388;BME280;50709;52.648;4.764;2022-07-21T08:13:15;101709.22;;;24.06;62.39
64388;BME280;50709;52.648;4.764;2022-07-21T08:15:42;101704.88;;;24.04;62.17
64388;BME280;50709;52.648;4.764;2022-07-21T08:18:08;101694.25;;;23.80;62.25
64388;BME280;50709;52.648;4.764;2022-07-21T08:20:34;101722.06;;;23.74;63.36
64388;BME280;50709;52.648;4.764;2022-07-21T08:23:00;101737.41;;;24.13;62.75
64388;BME280;50709;52.648;4.764;2022-07-21T08:25:25;101720.25;;;23.98;62.48
64388;BME280;50709;52.648;4.764;2022-07-21T08:27:51;101717.88;;;23.67;64.09
64388;BME280;50709;52.648;4.764;2022-07-21T08:30:16;101749.88;;;23.91;62.68
64388;BME280;50709;52.648;4.764;2022-07-21T08:32:41;101695.25;;;23.77;62.19
64388;BME280;50709;52.648;4.764;2022-07-21T08:35:07;101727.25;;;23.77;62.91
64388;BME280;50709;52.648;4.764;2022-07-21T08:37:40;101735.44;;;23.49;63.38
64388;BME280;50709;52.648;4.764;2022-07-21T08:40:10;101756.75;;;23.73;63.96
64388;BME280;50709;52.648;4.764;2022-07-21T08:42:36;101748.47;;;23.80;62.84
64388;BME280;50709;52.648;4.764;2022-07-21T08:45:03;101743.59;;;23.44;63.96
64388;BME280;50709;52.648;4.764;2022-07-21T08:47:28;101745.88;;;23.55;64.45
64388;BME280;50709;52.648;4.764;2022-07-21T08:49:55;101694.97;;;23.83;62.55
64388;BME280;50709;52.648;4.764;2022-07-21T08:52:20;101747.09;;;23.94;63.45
64388;BME280;50709;52.648;4.764;2022-07-21T08:54:46;101741.69;;;23.95;62.66
64388;BME280;50709;52.648;4.764;2022-07-21T08:57:12;101712.88;;;23.58;63.36
64388;BME280;50709;52.648;4.764;2022-07-21T08:59:37;101738.16;;;23.95;62.75
64388;BME280;50709;52.648;4.764;2022-07-21T09:02:03;101726.81;;;23.66;63.40
64388;BME280;50709;52.648;4.764;2022-07-21T09:04:31;101711.47;;;23.49;62.92
64388;BME280;50709;52.648;4.764;2022-07-21T09:06:58;101718.00;;;23.64;63.13
64388;BME280;50709;52.648;4.764;2022-07-21T09:09:25;101732.66;;;23.76;64.23
64388;BME280;50709;52.648;4.764;2022-07-21T09:11:51;101744.19;;;23.76;63.91
64388;BME280;50709;52.648;4.764;2022-07-21T09:14:20;101742.00;;;23.64;64.43
64388;BME280;50709;52.648;4.764;2022-07-21T09:16:55;101741.88;;;23.67;64.17
64388;BME280;50709;52.648;4.764;2022-07-21T09:19:37;101747.91;;;23.96;62.79
64388;BME280;50709;52.648;4.764;2022-07-21T09:22:15;101749.38;;;24.03;63.18
64388;BME280;50709;52.648;4.764;2022-07-21T09:24:48;101747.22;;;23.91;63.32
64388;BME280;50709;52.648;4.764;2022-07-21T09:27:23;101745.41;;;23.91;63.31
64388;BME280;50709;52.648;4.764;2022-07-21T09:29:51;101703.47;;;23.49;64.00
64388;BME280;50709;52.648;4.764;2022-07-21T09:34:45;101728.28;;;23.97;62.88
64388;BME280;50709;52.648;4.764;2022-07-21T09:37:11;101718.91;;;24.09;62.32
64388;BME280;50709;52.648;4.764;2022-07-21T09:39:56;101743.28;;;23.99;62.52
64388;BME280;50709;52.648;4.764;2022-07-21T09:42:33;101737.59;;;24.09;62.94
64388;BME280;50709;52.648;4.764;2022-07-21T09:45:05;101712.78;;;24.07;62.92
64388;BME280;50709;52.648;4.764;2022-07-21T09:47:32;101688.69;;;24.08;61.79
64388;BME280;50709;52.648;4.764;2022-07-21T09:49:59;101736.16;;;24.44;61.92
64388;BME280;50709;52.648;4.764;2022-07-21T09:52:33;101743.03;;;24.28;63.58
64388;BME280;50709;52.648;4.764;2022-07-21T09:55:01;101722.56;;;24.06;64.45
64388;BME280;50709;52.648;4.764;2022-07-21T09:57:27;101746.63;;;24.49;62.65
64388;BME280;50709;52.648;4.764;2022-07-21T09:59:53;101750.50;;;24.42;61.80
64388;BME280;50709;52.648;4.764;2022-07-21T10:02:22;101729.69;;;24.50;61.70
64388;BME280;50709;52.648;4.764;2022-07-21T10:07:27;101750.66;;;24.59;61.51
64388;BME280;50709;52.648;4.764;2022-07-21T10:09:53;101741.69;;;24.62;60.88
64388;BME280;50709;52.648;4.764;2022-07-21T10:12:19;101754.31;;;24.57;61.89
64388;BME280;50709;52.648;4.764;2022-07-21T10:14:45;101733.66;;;24.62;61.11
64388;BME280;50709;52.648;4.764;2022-07-21T10:17:15;101741.59;;;24.84;59.21
64388;BME280;50709;52.648;4.764;2022-07-21T10:20:18;101759.66;;;24.57;61.37
64388;BME280;50709;52.648;4.764;2022-07-21T10:23:03;101757.50;;;24.44;60.58
64388;BME280;50709;52.648;4.764;2022-07-21T10:25:31;101755.41;;;24.30;60.63
64388;BME280;50709;52.648;4.764;2022-07-21T10:28:17;101758.25;;;24.70;58.60
64388;BME280;50709;52.648;4.764;2022-07-21T10:30:45;101757.09;;;24.76;59.63
64388;BME280;50709;52.648;4.764;2022-07-21T10:33:12;101769.09;;;24.65;61.28
64388;BME280;50709;52.648;4.764;2022-07-21T10:35:42;101763.50;;;24.49;61.83
64388;BME280;50709;52.648;4.764;2022-07-21T10:38:33;101774.88;;;24.55;62.24
64388;BME280;50709;52.648;4.764;2022-07-21T10:41:01;101751.91;;;24.50;61.27
64388;BME280;50709;52.648;4.764;2022-07-21T10:45:53;101767.41;;;24.20;63.62
64388;BME280;50709;52.648;4.764;2022-07-21T10:51:03;101774.50;;;24.19;62.89
64388;BME280;50709;52.648;4.764;2022-07-21T10:53:29;101773.56;;;24.43;61.34
64388;BME280;50709;52.648;4.764;2022-07-21T10:55:55;101777.28;;;24.61;60.22
64388;BME280;50709;52.648;4.764;2022-07-21T10:58:30;101755.41;;;24.08;62.30
64388;BME280;50709;52.648;4.764;2022-07-21T11:06:24;101785.13;;;23.99;63.07
64388;BME280;50709;52.648;4.764;2022-07-21T11:11:57;101791.06;;;23.82;64.94
64388;BME280;50709;52.648;4.764;2022-07-21T11:14:41;101764.09;;;23.67;64.68
64388;BME280;50709;52.648;4.764;2022-07-21T11:17:30;101788.03;;;23.69;64.84
64388;BME280;50709;52.648;4.764;2022-07-21T11:19:55;101770.00;;;23.76;64.53
64388;BME280;50709;52.648;4.764;2022-07-21T11:22:28;101792.31;;;23.97;63.97
64388;BME280;50709;52.648;4.764;2022-07-21T11:27:26;101783.19;;;23.79;63.76
64388;BME280;50709;52.648;4.764;2022-07-21T11:29:54;101793.00;;;24.02;63.00
64388;BME280;50709;52.648;4.764;2022-07-21T11:32:21;101803.72;;;24.00;63.89
64388;BME280;50709;52.648;4.764;2022-07-21T11:35:01;101798.03;;;24.10;62.53
64388;BME280;50709;52.648;4.764;2022-07-21T11:37:36;101801.06;;;24.00;63.24
64388;BME280;50709;52.648;4.764;2022-07-21T11:40:12;101805.09;;;23.87;63.40
64388;BME280;50709;52.648;4.764;2022-07-21T11:42:38;101771.44;;;23.61;63.21
64388;BME280;50709;52.648;4.764;2022-07-21T11:45:05;101805.22;;;23.60;64.71
64388;BME280;50709;52.648;4.764;2022-07-21T11:47:30;101806.03;;;23.86;64.65
64388;BME280;50709;52.648;4.764;2022-07-21T11:49:58;101792.28;;;23.98;63.81
64388;BME280;50709;52.648;4.764;2022-07-21T11:52:25;101797.97;;;23.89;63.92
64388;BME280;50709;52.648;4.764;2022-07-21T11:54:52;101812.97;;;23.92;64.04
64388;BME280;50709;52.648;4.764;2022-07-21T11:57:19;101786.97;;;23.73;65.18
64388;BME280;50709;52.648;4.764;2022-07-21T11:59:46;101814.50;;;23.74;65.48
64388;BME280;50709;52.648;4.764;2022-07-21T12:04:51;101816.59;;;24.13;64.08
64388;BME280;50709;52.648;4.764;2022-07-21T12:09:52;101784.06;;;23.79;63.57
64388;BME280;50709;52.648;4.764;2022-07-21T12:14:53;101818.00;;;23.99;64.75
64388;BME280;50709;52.648;4.764;2022-07-21T12:17:33;101815.59;;;24.15;64.08
64388;BME280;50709;52.648;4.764;2022-07-21T12:19:59;101770.28;;;23.68;64.86
64388;BME280;50709;52.648;4.764;2022-07-21T12:22:45;101767.69;;;23.66;64.28
64388;BME280;50709;52.648;4.764;2022-07-21T12:25:13;101814.75;;;23.91;64.88
64388;BME280;50709;52.648;4.764;2022-07-21T12:27:41;101817.00;;;24.26;62.96
64388;BME280;50709;52.648;4.764;2022-07-21T12:30:08;101783.63;;;23.92;63.37
64388;BME280;50709;52.648;4.764;2022-07-21T12:35:04;101805.47;;;24.24;62.72
64388;BME280;50709;52.648;4.764;2022-07-21T12:40:22;101829.22;;;24.09;63.33
64388;BME280;50709;52.648;4.764;2022-07-21T12:42:48;101833.50;;;24.35;62.33
64388;BME280;50709;52.648;4.764;2022-07-21T12:45:19;101827.47;;;24.08;63.00
64388;BME280;50709;52.648;4.764;2022-07-21T12:48:05;101832.09;;;24.03;63.30
64388;BME280;50709;52.648;4.764;2022-07-21T12:50:30;101822.38;;;24.24;60.28
64388;BME280;50709;52.648;4.764;2022-07-21T12:52:56;101825.47;;;24.13;62.63
64388;BME280;50709;52.648;4.764;2022-07-21T12:55:21;101826.41;;;24.12;62.60
64388;BME280;50709;52.648;4.764;2022-07-21T12:57:46;101821.66;;;23.97;63.51
64388;BME280;50709;52.648;4.764;2022-07-21T13:00:12;101829.22;;;24.09;63.50
64388;BME280;50709;52.648;4.764;2022-07-21T13:02:51;101833.78;;;24.06;63.70
64388;BME280;50709;52.648;4.764;2022-07-21T13:05:17;101841.09;;;24.00;63.63
64388;BME280;50709;52.648;4.764;2022-07-21T13:07:42;101827.16;;;24.16;62.73
64388;BME280;50709;52.648;4.764;2022-07-21T13:10:08;101817.06;;;23.77;64.09
64388;BME280;50709;52.648;4.764;2022-07-21T13:12:33;101844.16;;;24.13;61.78
64388;BME280;50709;52.648;4.764;2022-07-21T13:14:59;101841.72;;;24.07;61.65
64388;BME280;50709;52.648;4.764;2022-07-21T13:17:24;101842.00;;;23.99;62.26
64388;BME280;50709;52.648;4.764;2022-07-21T13:19:49;101846.78;;;23.91;61.86
64388;BME280;50709;52.648;4.764;2022-07-21T13:22:14;101820.47;;;23.80;62.02
64388;BME280;50709;52.648;4.764;2022-07-21T13:24:40;101853.09;;;24.34;60.05
64388;BME280;50709;52.648;4.764;2022-07-21T13:27:05;101866.34;;;24.38;59.42